sensor_id;sensor_type;location;lat;lon;timestamp;temperature;humidity
5617;DHT22;2830;50.656;7.568;2024-03-02T00:00:14;5.90;99.90
5617;DHT22;2830;50.656;7.568;2024-03-02T00:02:42;5.80;99.90
5617;DHT22;2830;50.656;7.568;2024-03-02T00:05:18;5.90;99.90
5617;DHT22;2830;50.656;7.568;2024-03-02T00:07:52;5.90;99.90
5617;DHT22;2830;50.656;7.568;2024-03-02T00:10:22;6.00;99.90
5617;DHT22;2830;50.656;7.568;2024-03-02T00:12:52;5.90;99.90
5617;DHT22;2830;50.656;7.568;2024-03-02T00:15:47;5.90;99.90
5617;DHT22;2830;50.656;7.568;2024-03-02T00:18:40;5.90;99.90
5617;DHT22;2830;50.656;7.568;2024-03-02T00:21:07;6.00;99.90
5617;DHT22;2830;50.656;7.568;2024-03-02T00:23:37;6.10;99.90
5617;DHT22;2830;50.656;7.568;2024-03-02T00:26:06;6.10;99.90
5617;DHT22;2830;50.656;7.568;2024-03-02T00:28:36;6.20;99.90
5617;DHT22;2830;50.656;7.568;2024-03-02T00:31:13;6.30;99.90
5617;DHT22;2830;50.656;7.568;2024-03-02T00:33:43;6.40;99.90
5617;DHT22;2830;50.656;7.568;2024-03-02T00:36:12;6.50;99.90
5617;DHT22;2830;50.656;7.568;2024-03-02T00:38:50;6.50;99.90
5617;DHT22;2830;50.656;7.568;2024-03-02T00:41:30;6.60;99.90
5617;DHT22;2830;50.656;7.568;2024-03-02T00:43:59;6.60;99.90
5617;DHT22;2830;50.656;7.568;2024-03-02T00:46:34;6.70;99.90
5617;DHT22;2830;50.656;7.568;2024-03-02T00:49:44;6.70;99.90
5617;DHT22;2830;50.656;7.568;2024-03-02T00:51:54;6.70;99.90
5617;DHT22;2830;50.656;7.568;2024-03-02T00:54:28;6.80;99.90
5617;DHT22;2830;50.656;7.568;2024-03-02T00:56:55;6.80;99.90
5617;DHT22;2830;50.656;7.568;2024-03-02T00:59:23;6.80;99.90
5617;DHT22;2830;50.656;7.568;2024-03-02T01:01:52;6.80;99.90
5617;DHT22;2830;50.656;7.568;2024-03-02T01:04:19;6.70;99.90
5617;DHT22;2830;50.656;7.568;2024-03-02T01:06:45;6.70;99.90
5617;DHT22;2830;50.656;7.568;2024-03-02T01:09:13;6.60;99.90
5617;DHT22;2830;50.656;7.568;2024-03-02T01:11:40;6.60;99.90
5617;DHT22;2830;50.656;7.568;2024-03-02T01:14:07;6.60;99.90
5617;DHT22;2830;50.656;7.568;2024-03-02T01:16:33;6.50;99.90
5617;DHT22;2830;50.656;7.568;2024-03-02T01:19:00;6.50;99.90
5617;DHT22;2830;50.656;7.568;2024-03-02T01:21:27;6.50;99.90
5617;DHT22;2830;50.656;7.568;2024-03-02T01:23:54;6.60;99.90
5617;DHT22;2830;50.656;7.568;2024-03-02T01:26:21;6.60;99.90
5617;DHT22;2830;50.656;7.568;2024-03-02T01:28:48;6.50;99.90
5617;DHT22;2830;50.656;7.568;2024-03-02T01:31:15;6.50;99.90
5617;DHT22;2830;50.656;7.568;2024-03-02T01:33:42;6.50;99.90
5617;DHT22;2830;50.656;7.568;2024-03-02T01:36:09;6.50;99.90
5617;DHT22;2830;50.656;7.568;2024-03-02T01:38:36;6.40;99.90
5617;DHT22;2830;50.656;7.568;2024-03-02T01:41:03;6.40;99.90
5617;DHT22;2830;50.656;7.568;2024-03-02T01:43:30;6.20;99.90
5617;DHT22;2830;50.656;7.568;2024-03-02T01:45:56;6.20;99.90
5617;DHT22;2830;50.656;7.568;2024-03-02T01:48:24;6.20;99.90
5617;DHT22;2830;50.656;7.568;2024-03-02T01:50:51;6.10;99.90
5617;DHT22;2830;50.656;7.568;2024-03-02T01:53:18;6.10;99.90
5617;DHT22;2830;50.656;7.568;2024-03-02T01:55:45;6.00;99.90
5617;DHT22;2830;50.656;7.568;2024-03-02T01:58:12;5.90;99.90
5617;DHT22;2830;50.656;7.568;2024-03-02T02:00:39;5.80;99.90
5617;DHT22;2830;50.656;7.568;2024-03-02T02:03:06;5.70;99.90
5617;DHT22;2830;50.656;7.568;2024-03-02T02:05:34;5.70;99.90
5617;DHT22;2830;50.656;7.568;2024-03-02T02:08:02;5.60;99.90
5617;DHT22;2830;50.656;7.568;2024-03-02T02:10:28;5.60;99.90
5617;DHT22;2830;50.656;7.568;2024-03-02T02:12:55;5.70;99.90
5617;DHT22;2830;50.656;7.568;2024-03-02T02:17:49;5.70;99.90
5617;DHT22;2830;50.656;7.568;2024-03-02T02:20:16;5.80;99.90
5617;DHT22;2830;50.656;7.568;2024-03-02T02:23:00;5.80;99.90
5617;DHT22;2830;50.656;7.568;2024-03-02T02:25:28;5.70;99.90
5617;DHT22;2830;50.656;7.568;2024-03-02T02:27:57;5.80;99.90
5617;DHT22;2830;50.656;7.568;2024-03-02T02:30:26;5.80;99.90
5617;DHT22;2830;50.656;7.568;2024-03-02T02:32:54;5.80;99.90
5617;DHT22;2830;50.656;7.568;2024-03-02T02:35:21;5.80;99.90
5617;DHT22;2830;50.656;7.568;2024-03-02T02:37:49;5.80;99.90
5617;DHT22;2830;50.656;7.568;2024-03-02T02:40:17;5.70;99.90
5617;DHT22;2830;50.656;7.568;2024-03-02T02:42:46;5.70;99.90
5617;DHT22;2830;50.656;7.568;2024-03-02T02:45:13;5.70;99.90
5617;DHT22;2830;50.656;7.568;2024-03-02T02:47:42;5.80;99.90
5617;DHT22;2830;50.656;7.568;2024-03-02T02:50:10;5.70;99.90
5617;DHT22;2830;50.656;7.568;2024-03-02T02:52:39;5.70;99.90
5617;DHT22;2830;50.656;7.568;2024-03-02T02:55:09;5.70;99.90
5617;DHT22;2830;50.656;7.568;2024-03-02T02:57:37;5.70;99.90
5617;DHT22;2830;50.656;7.568;2024-03-02T03:00:13;5.60;99.90
5617;DHT22;2830;50.656;7.568;2024-03-02T03:02:45;5.60;99.90
5617;DHT22;2830;50.656;7.568;2024-03-02T03:05:14;5.60;99.90
5617;DHT22;2830;50.656;7.568;2024-03-02T03:07:42;5.60;99.90
5617;DHT22;2830;50.656;7.568;2024-03-02T03:10:11;5.70;99.90
5617;DHT22;2830;50.656;7.568;2024-03-02T03:12:38;5.80;99.90
5617;DHT22;2830;50.656;7.568;2024-03-02T03:15:05;5.70;99.90
5617;DHT22;2830;50.656;7.568;2024-03-02T03:17:33;5.70;99.90
5617;DHT22;2830;50.656;7.568;2024-03-02T03:20:01;5.70;99.90
5617;DHT22;2830;50.656;7.568;2024-03-02T03:22:31;5.60;99.90
5617;DHT22;2830;50.656;7.568;2024-03-02T03:24:58;5.60;99.90
5617;DHT22;2830;50.656;7.568;2024-03-02T03:27:26;5.60;99.90
5617;DHT22;2830;50.656;7.568;2024-03-02T03:29:53;5.50;99.90
5617;DHT22;2830;50.656;7.568;2024-03-02T03:32:21;5.40;99.90
5617;DHT22;2830;50.656;7.568;2024-03-02T03:34:48;5.40;99.90
5617;DHT22;2830;50.656;7.568;2024-03-02T03:37:15;5.40;99.90
5617;DHT22;2830;50.656;7.568;2024-03-02T03:39:42;5.40;99.90
5617;DHT22;2830;50.656;7.568;2024-03-02T03:42:09;5.50;99.90
5617;DHT22;2830;50.656;7.568;2024-03-02T03:44:36;5.50;99.90
5617;DHT22;2830;50.656;7.568;2024-03-02T03:47:03;5.50;99.90
5617;DHT22;2830;50.656;7.568;2024-03-02T03:49:30;5.50;99.90
5617;DHT22;2830;50.656;7.568;2024-03-02T03:51:57;5.40;99.90
5617;DHT22;2830;50.656;7.568;2024-03-02T03:54:24;5.50;99.90
5617;DHT22;2830;50.656;7.568;2024-03-02T03:56:51;5.40;99.90
5617;DHT22;2830;50.656;7.568;2024-03-02T03:59:17;5.40;99.90
5617;DHT22;2830;50.656;7.568;2024-03-02T04:01:44;5.40;99.90
5617;DHT22;2830;50.656;7.568;2024-03-02T04:04:11;5.30;99.90
5617;DHT22;2830;50.656;7.568;2024-03-02T04:06:38;5.40;99.90
5617;DHT22;2830;50.656;7.568;2024-03-02T04:09:05;5.40;99.90
5617;DHT22;2830;50.656;7.568;2024-03-02T04:11:32;5.40;99.90
5617;DHT22;2830;50.656;7.568;2024-03-02T04:13:59;5.40;99.90
5617;DHT22;2830;50.656;7.568;2024-03-02T04:16:26;5.40;99.90
5617;DHT22;2830;50.656;7.568;2024-03-02T04:18:53;5.40;99.90
5617;DHT22;2830;50.656;7.568;2024-03-02T04:21:20;5.40;99.90
5617;DHT22;2830;50.656;7.568;2024-03-02T04:23:47;5.50;99.90
5617;DHT22;2830;50.656;7.568;2024-03-02T04:26:14;5.50;99.90
5617;DHT22;2830;50.656;7.568;2024-03-02T04:28:41;5.50;99.90
5617;DHT22;2830;50.656;7.568;2024-03-02T04:31:08;5.50;99.90
5617;DHT22;2830;50.656;7.568;2024-03-02T04:33:35;5.50;99.90
5617;DHT22;2830;50.656;7.568;2024-03-02T04:36:02;5.40;99.90
5617;DHT22;2830;50.656;7.568;2024-03-02T04:38:29;5.40;99.90
5617;DHT22;2830;50.656;7.568;2024-03-02T04:40:57;5.30;99.90
5617;DHT22;2830;50.656;7.568;2024-03-02T04:43:23;5.30;99.90
5617;DHT22;2830;50.656;7.568;2024-03-02T04:45:50;5.20;99.90
5617;DHT22;2830;50.656;7.568;2024-03-02T04:48:17;5.10;99.90
5617;DHT22;2830;50.656;7.568;2024-03-02T04:50:45;5.00;99.90
5617;DHT22;2830;50.656;7.568;2024-03-02T04:53:12;4.90;99.90
5617;DHT22;2830;50.656;7.568;2024-03-02T04:55:39;4.80;99.90
5617;DHT22;2830;50.656;7.568;2024-03-02T04:58:05;4.80;99.90
5617;DHT22;2830;50.656;7.568;2024-03-02T05:00:34;4.70;99.90
5617;DHT22;2830;50.656;7.568;2024-03-02T05:03:02;4.70;99.90
5617;DHT22;2830;50.656;7.568;2024-03-02T05:05:29;4.80;99.90
5617;DHT22;2830;50.656;7.568;2024-03-02T05:07:56;4.90;99.90
5617;DHT22;2830;50.656;7.568;2024-03-02T05:10:23;5.00;99.90
5617;DHT22;2830;50.656;7.568;2024-03-02T05:12:51;5.20;99.90
5617;DHT22;2830;50.656;7.568;2024-03-02T05:15:26;5.30;99.90
5617;DHT22;2830;50.656;7.568;2024-03-02T05:17:53;5.40;99.90
5617;DHT22;2830;50.656;7.568;2024-03-02T05:20:20;5.40;99.90
5617;DHT22;2830;50.656;7.568;2024-03-02T05:22:47;5.40;99.90
5617;DHT22;2830;50.656;7.568;2024-03-02T05:25:15;5.40;99.90
5617;DHT22;2830;50.656;7.568;2024-03-02T05:27:42;5.40;99.90
5617;DHT22;2830;50.656;7.568;2024-03-02T05:30:09;5.30;99.90
5617;DHT22;2830;50.656;7.568;2024-03-02T05:32:36;5.30;99.90
5617;DHT22;2830;50.656;7.568;2024-03-02T05:35:04;5.20;99.90
5617;DHT22;2830;50.656;7.568;2024-03-02T05:37:31;5.10;99.90
5617;DHT22;2830;50.656;7.568;2024-03-02T05:40:03;5.10;99.90
5617;DHT22;2830;50.656;7.568;2024-03-02T05:42:32;5.10;99.90
5617;DHT22;2830;50.656;7.568;2024-03-02T05:44:59;5.10;99.90
5617;DHT22;2830;50.656;7.568;2024-03-02T05:47:26;5.10;99.90
5617;DHT22;2830;50.656;7.568;2024-03-02T05:49:55;5.10;99.90
5617;DHT22;2830;50.656;7.568;2024-03-02T05:52:22;5.10;99.90
5617;DHT22;2830;50.656;7.568;2024-03-02T05:54:49;5.00;99.90
5617;DHT22;2830;50.656;7.568;2024-03-02T05:57:16;5.00;99.90
5617;DHT22;2830;50.656;7.568;2024-03-02T05:59:48;5.00;99.90
5617;DHT22;2830;50.656;7.568;2024-03-02T06:02:15;5.00;99.90
5617;DHT22;2830;50.656;7.568;2024-03-02T06:04:42;4.90;99.90
5617;DHT22;2830;50.656;7.568;2024-03-02T06:07:09;4.90;99.90
5617;DHT22;2830;50.656;7.568;2024-03-02T06:09:36;4.80;99.90
5617;DHT22;2830;50.656;7.568;2024-03-02T06:12:04;4.80;99.90
5617;DHT22;2830;50.656;7.568;2024-03-02T06:14:31;4.70;99.90
5617;DHT22;2830;50.656;7.568;2024-03-02T06:16:58;4.70;99.90
5617;DHT22;2830;50.656;7.568;2024-03-02T06:19:26;4.80;99.90
5617;DHT22;2830;50.656;7.568;2024-03-02T06:21:54;4.70;99.90
5617;DHT22;2830;50.656;7.568;2024-03-02T06:24:21;4.80;99.90
5617;DHT22;2830;50.656;7.568;2024-03-02T06:26:48;4.80;99.90
5617;DHT22;2830;50.656;7.568;2024-03-02T06:29:15;4.80;99.90
5617;DHT22;2830;50.656;7.568;2024-03-02T06:31:42;4.90;99.90
5617;DHT22;2830;50.656;7.568;2024-03-02T06:34:08;4.90;99.90
5617;DHT22;2830;50.656;7.568;2024-03-02T06:36:35;5.10;99.90
5617;DHT22;2830;50.656;7.568;2024-03-02T06:39:02;5.20;99.90
5617;DHT22;2830;50.656;7.568;2024-03-02T06:41:29;5.20;99.90
5617;DHT22;2830;50.656;7.568;2024-03-02T06:43:57;5.30;99.90
5617;DHT22;2830;50.656;7.568;2024-03-02T06:46:27;5.40;99.90
5617;DHT22;2830;50.656;7.568;2024-03-02T06:48:56;5.40;99.90
5617;DHT22;2830;50.656;7.568;2024-03-02T06:51:23;5.60;99.90
5617;DHT22;2830;50.656;7.568;2024-03-02T06:53:50;5.70;99.90
5617;DHT22;2830;50.656;7.568;2024-03-02T06:56:16;5.70;99.90
5617;DHT22;2830;50.656;7.568;2024-03-02T06:58:43;5.80;99.90
5617;DHT22;2830;50.656;7.568;2024-03-02T07:01:10;5.80;99.90
5617;DHT22;2830;50.656;7.568;2024-03-02T07:03:37;5.90;99.90
5617;DHT22;2830;50.656;7.568;2024-03-02T07:06:06;6.00;99.90
5617;DHT22;2830;50.656;7.568;2024-03-02T07:08:33;6.10;99.90
5617;DHT22;2830;50.656;7.568;2024-03-02T07:11:00;6.20;99.90
5617;DHT22;2830;50.656;7.568;2024-03-02T07:13:27;6.20;99.90
5617;DHT22;2830;50.656;7.568;2024-03-02T07:15:54;6.20;99.90
5617;DHT22;2830;50.656;7.568;2024-03-02T07:18:41;6.20;99.90
5617;DHT22;2830;50.656;7.568;2024-03-02T07:21:09;6.20;99.90
5617;DHT22;2830;50.656;7.568;2024-03-02T07:23:35;6.20;99.90
5617;DHT22;2830;50.656;7.568;2024-03-02T07:26:02;6.20;99.90
5617;DHT22;2830;50.656;7.568;2024-03-02T07:28:33;6.20;99.90
5617;DHT22;2830;50.656;7.568;2024-03-02T07:31:00;6.20;99.90
5617;DHT22;2830;50.656;7.568;2024-03-02T07:33:28;6.30;99.90
5617;DHT22;2830;50.656;7.568;2024-03-02T07:35:55;6.30;99.90
5617;DHT22;2830;50.656;7.568;2024-03-02T07:38:22;6.50;99.90
5617;DHT22;2830;50.656;7.568;2024-03-02T07:40:51;6.70;99.90
5617;DHT22;2830;50.656;7.568;2024-03-02T07:43:18;7.20;99.90
5617;DHT22;2830;50.656;7.568;2024-03-02T07:45:46;7.90;99.90
5617;DHT22;2830;50.656;7.568;2024-03-02T07:48:14;8.70;99.90
5617;DHT22;2830;50.656;7.568;2024-03-02T07:50:41;9.50;99.90
5617;DHT22;2830;50.656;7.568;2024-03-02T07:53:09;10.10;99.90
5617;DHT22;2830;50.656;7.568;2024-03-02T07:55:36;10.60;99.90
5617;DHT22;2830;50.656;7.568;2024-03-02T07:58:03;11.00;99.90
5617;DHT22;2830;50.656;7.568;2024-03-02T08:00:30;11.40;99.90
5617;DHT22;2830;50.656;7.568;2024-03-02T08:02:57;11.70;99.90
5617;DHT22;2830;50.656;7.568;2024-03-02T08:05:24;11.90;99.90
5617;DHT22;2830;50.656;7.568;2024-03-02T08:07:51;11.80;99.90
5617;DHT22;2830;50.656;7.568;2024-03-02T08:10:19;12.10;99.90
5617;DHT22;2830;50.656;7.568;2024-03-02T08:12:47;12.10;99.90
5617;DHT22;2830;50.656;7.568;2024-03-02T08:15:14;12.10;99.90
5617;DHT22;2830;50.656;7.568;2024-03-02T08:17:41;12.10;99.90
5617;DHT22;2830;50.656;7.568;2024-03-02T08:20:15;11.90;99.90
5617;DHT22;2830;50.656;7.568;2024-03-02T08:22:42;12.40;99.90
5617;DHT22;2830;50.656;7.568;2024-03-02T08:25:09;12.50;99.90
5617;DHT22;2830;50.656;7.568;2024-03-02T08:27:37;12.20;99.90
5617;DHT22;2830;50.656;7.568;2024-03-02T08:30:05;12.30;99.90
5617;DHT22;2830;50.656;7.568;2024-03-02T08:32:34;12.30;99.90
5617;DHT22;2830;50.656;7.568;2024-03-02T08:35:01;12.90;99.90
5617;DHT22;2830;50.656;7.568;2024-03-02T08:37:28;13.10;99.90
5617;DHT22;2830;50.656;7.568;2024-03-02T08:39:55;13.40;99.90
5617;DHT22;2830;50.656;7.568;2024-03-02T08:42:22;13.70;99.90
5617;DHT22;2830;50.656;7.568;2024-03-02T08:44:50;13.90;99.90
5617;DHT22;2830;50.656;7.568;2024-03-02T08:47:17;14.00;99.90
5617;DHT22;2830;50.656;7.568;2024-03-02T08:49:43;14.40;99.90
5617;DHT22;2830;50.656;7.568;2024-03-02T08:52:10;14.60;99.90
5617;DHT22;2830;50.656;7.568;2024-03-02T08:54:37;14.30;99.90
5617;DHT22;2830;50.656;7.568;2024-03-02T08:57:05;14.30;99.90
5617;DHT22;2830;50.656;7.568;2024-03-02T08:59:32;14.50;99.90
5617;DHT22;2830;50.656;7.568;2024-03-02T09:01:59;15.00;99.90
5617;DHT22;2830;50.656;7.568;2024-03-02T09:04:27;15.30;99.90
5617;DHT22;2830;50.656;7.568;2024-03-02T09:06:59;15.60;99.90
5617;DHT22;2830;50.656;7.568;2024-03-02T09:09:26;15.50;99.90
5617;DHT22;2830;50.656;7.568;2024-03-02T09:11:53;15.90;99.90
5617;DHT22;2830;50.656;7.568;2024-03-02T09:14:22;15.80;99.90
5617;DHT22;2830;50.656;7.568;2024-03-02T09:16:49;16.20;99.90
5617;DHT22;2830;50.656;7.568;2024-03-02T09:19:19;16.60;99.90
5617;DHT22;2830;50.656;7.568;2024-03-02T09:21:46;16.60;99.30
5617;DHT22;2830;50.656;7.568;2024-03-02T09:24:12;16.70;99.10
5617;DHT22;2830;50.656;7.568;2024-03-02T09:26:43;17.00;98.80
5617;DHT22;2830;50.656;7.568;2024-03-02T09:29:10;17.00;97.80
5617;DHT22;2830;50.656;7.568;2024-03-02T09:31:40;16.90;97.00
5617;DHT22;2830;50.656;7.568;2024-03-02T09:34:08;17.30;97.20
5617;DHT22;2830;50.656;7.568;2024-03-02T09:36:35;18.00;95.40
5617;DHT22;2830;50.656;7.568;2024-03-02T09:39:02;18.30;94.80
5617;DHT22;2830;50.656;7.568;2024-03-02T09:41:32;18.50;92.90
5617;DHT22;2830;50.656;7.568;2024-03-02T09:44:00;18.00;93.60
5617;DHT22;2830;50.656;7.568;2024-03-02T09:46:30;17.90;93.60
5617;DHT22;2830;50.656;7.568;2024-03-02T09:48:57;17.30;94.40
5617;DHT22;2830;50.656;7.568;2024-03-02T09:51:24;17.40;94.50
5617;DHT22;2830;50.656;7.568;2024-03-02T09:53:51;17.10;94.90
5617;DHT22;2830;50.656;7.568;2024-03-02T09:56:21;16.90;95.50
5617;DHT22;2830;50.656;7.568;2024-03-02T09:58:48;16.50;95.90
5617;DHT22;2830;50.656;7.568;2024-03-02T10:01:15;16.40;97.30
5617;DHT22;2830;50.656;7.568;2024-03-02T10:03:44;16.60;96.30
5617;DHT22;2830;50.656;7.568;2024-03-02T10:06:27;16.80;96.20
5617;DHT22;2830;50.656;7.568;2024-03-02T10:08:54;16.70;96.40
5617;DHT22;2830;50.656;7.568;2024-03-02T10:11:29;16.80;96.50
5617;DHT22;2830;50.656;7.568;2024-03-02T10:14:11;16.60;97.10
5617;DHT22;2830;50.656;7.568;2024-03-02T10:16:39;16.60;96.30
5617;DHT22;2830;50.656;7.568;2024-03-02T10:19:23;16.60;96.60
5617;DHT22;2830;50.656;7.568;2024-03-02T10:21:52;16.70;96.60
5617;DHT22;2830;50.656;7.568;2024-03-02T10:24:21;17.10;95.90
5617;DHT22;2830;50.656;7.568;2024-03-02T10:26:49;18.00;94.80
5617;DHT22;2830;50.656;7.568;2024-03-02T10:29:16;18.10;94.50
5617;DHT22;2830;50.656;7.568;2024-03-02T10:31:45;19.10;92.20
5617;DHT22;2830;50.656;7.568;2024-03-02T10:34:15;19.20;91.90
5617;DHT22;2830;50.656;7.568;2024-03-02T10:36:44;18.60;91.00
5617;DHT22;2830;50.656;7.568;2024-03-02T10:39:13;18.10;91.70
5617;DHT22;2830;50.656;7.568;2024-03-02T10:41:41;18.80;90.50
5617;DHT22;2830;50.656;7.568;2024-03-02T10:44:09;18.70;88.80
5617;DHT22;2830;50.656;7.568;2024-03-02T10:46:37;18.60;89.70
5617;DHT22;2830;50.656;7.568;2024-03-02T10:49:05;19.20;88.30
5617;DHT22;2830;50.656;7.568;2024-03-02T10:51:34;20.30;84.40
5617;DHT22;2830;50.656;7.568;2024-03-02T10:54:04;21.50;82.50
5617;DHT22;2830;50.656;7.568;2024-03-02T10:56:34;22.20;76.10
5617;DHT22;2830;50.656;7.568;2024-03-02T10:59:28;21.90;74.60
5617;DHT22;2830;50.656;7.568;2024-03-02T11:02:00;20.60;77.40
5617;DHT22;2830;50.656;7.568;2024-03-02T11:04:32;19.10;80.60
5617;DHT22;2830;50.656;7.568;2024-03-02T11:07:07;18.10;88.20
5617;DHT22;2830;50.656;7.568;2024-03-02T11:09:40;17.40;90.10
5617;DHT22;2830;50.656;7.568;2024-03-02T11:12:23;16.60;91.30
5617;DHT22;2830;50.656;7.568;2024-03-02T11:14:51;16.20;92.00
5617;DHT22;2830;50.656;7.568;2024-03-02T11:17:21;15.40;93.20
5617;DHT22;2830;50.656;7.568;2024-03-02T11:19:48;15.00;95.00
5617;DHT22;2830;50.656;7.568;2024-03-02T11:22:16;14.90;96.30
5617;DHT22;2830;50.656;7.568;2024-03-02T11:24:50;14.40;97.10
5617;DHT22;2830;50.656;7.568;2024-03-02T11:33:02;14.90;98.90
5617;DHT22;2830;50.656;7.568;2024-03-02T11:35:42;15.30;97.60
5617;DHT22;2830;50.656;7.568;2024-03-02T11:38:10;15.10;97.00
5617;DHT22;2830;50.656;7.568;2024-03-02T11:40:39;15.30;97.70
5617;DHT22;2830;50.656;7.568;2024-03-02T11:43:07;16.40;97.10
5617;DHT22;2830;50.656;7.568;2024-03-02T11:45:36;18.00;93.90
5617;DHT22;2830;50.656;7.568;2024-03-02T11:48:08;19.00;90.90
5617;DHT22;2830;50.656;7.568;2024-03-02T11:50:47;19.20;90.00
5617;DHT22;2830;50.656;7.568;2024-03-02T11:53:16;18.80;90.00
5617;DHT22;2830;50.656;7.568;2024-03-02T11:55:44;18.10;91.30
5617;DHT22;2830;50.656;7.568;2024-03-02T11:58:15;18.00;91.10
5617;DHT22;2830;50.656;7.568;2024-03-02T12:00:50;17.70;91.20
5617;DHT22;2830;50.656;7.568;2024-03-02T12:03:18;19.50;90.50
5617;DHT22;2830;50.656;7.568;2024-03-02T12:05:50;19.40;88.90
5617;DHT22;2830;50.656;7.568;2024-03-02T12:08:17;19.10;86.90
5617;DHT22;2830;50.656;7.568;2024-03-02T12:10:58;19.00;88.80
5617;DHT22;2830;50.656;7.568;2024-03-02T12:13:26;19.50;86.30
5617;DHT22;2830;50.656;7.568;2024-03-02T12:15:54;19.70;85.00
5617;DHT22;2830;50.656;7.568;2024-03-02T12:18:25;20.50;83.10
5617;DHT22;2830;50.656;7.568;2024-03-02T12:20:53;20.00;82.00
5617;DHT22;2830;50.656;7.568;2024-03-02T12:23:24;18.70;85.20
5617;DHT22;2830;50.656;7.568;2024-03-02T12:25:51;17.50;87.40
5617;DHT22;2830;50.656;7.568;2024-03-02T12:28:19;16.70;90.40
5617;DHT22;2830;50.656;7.568;2024-03-02T12:30:46;16.70;91.40
5617;DHT22;2830;50.656;7.568;2024-03-02T12:33:14;17.80;90.00
5617;DHT22;2830;50.656;7.568;2024-03-02T12:35:41;18.20;89.00
5617;DHT22;2830;50.656;7.568;2024-03-02T12:38:09;19.80;85.40
5617;DHT22;2830;50.656;7.568;2024-03-02T12:40:37;19.50;83.30
5617;DHT22;2830;50.656;7.568;2024-03-02T12:43:05;19.90;81.70
5617;DHT22;2830;50.656;7.568;2024-03-02T12:45:34;18.50;81.90
5617;DHT22;2830;50.656;7.568;2024-03-02T12:48:01;17.60;86.90
5617;DHT22;2830;50.656;7.568;2024-03-02T12:50:29;16.80;90.00
5617;DHT22;2830;50.656;7.568;2024-03-02T12:52:57;16.90;88.30
5617;DHT22;2830;50.656;7.568;2024-03-02T12:55:24;16.60;90.60
5617;DHT22;2830;50.656;7.568;2024-03-02T12:57:52;16.40;90.90
5617;DHT22;2830;50.656;7.568;2024-03-02T13:00:20;16.30;91.50
5617;DHT22;2830;50.656;7.568;2024-03-02T13:02:48;15.80;91.50
5617;DHT22;2830;50.656;7.568;2024-03-02T13:05:18;15.50;92.00
5617;DHT22;2830;50.656;7.568;2024-03-02T13:07:47;15.30;94.00
5617;DHT22;2830;50.656;7.568;2024-03-02T13:10:16;16.20;92.80
5617;DHT22;2830;50.656;7.568;2024-03-02T13:12:43;16.90;90.50
5617;DHT22;2830;50.656;7.568;2024-03-02T13:15:10;17.60;90.30
5617;DHT22;2830;50.656;7.568;2024-03-02T13:17:44;18.10;87.30
5617;DHT22;2830;50.656;7.568;2024-03-02T13:20:12;18.30;85.90
5617;DHT22;2830;50.656;7.568;2024-03-02T13:22:41;18.10;84.80
5617;DHT22;2830;50.656;7.568;2024-03-02T13:25:08;17.90;85.70
5617;DHT22;2830;50.656;7.568;2024-03-02T13:27:38;17.60;85.40
5617;DHT22;2830;50.656;7.568;2024-03-02T13:30:06;17.30;86.10
5617;DHT22;2830;50.656;7.568;2024-03-02T13:32:33;16.80;86.70
5617;DHT22;2830;50.656;7.568;2024-03-02T13:35:00;16.70;87.40
5617;DHT22;2830;50.656;7.568;2024-03-02T13:37:27;16.70;88.00
5617;DHT22;2830;50.656;7.568;2024-03-02T13:39:53;16.60;88.90
5617;DHT22;2830;50.656;7.568;2024-03-02T13:42:20;16.10;89.10
5617;DHT22;2830;50.656;7.568;2024-03-02T13:44:47;15.70;90.10
5617;DHT22;2830;50.656;7.568;2024-03-02T13:47:16;15.20;90.90
5617;DHT22;2830;50.656;7.568;2024-03-02T13:49:43;15.00;91.60
5617;DHT22;2830;50.656;7.568;2024-03-02T13:52:12;14.90;91.70
5617;DHT22;2830;50.656;7.568;2024-03-02T13:54:45;14.80;92.20
5617;DHT22;2830;50.656;7.568;2024-03-02T13:57:13;14.90;92.00
5617;DHT22;2830;50.656;7.568;2024-03-02T13:59:42;15.10;91.80
5617;DHT22;2830;50.656;7.568;2024-03-02T14:02:10;15.30;92.30
5617;DHT22;2830;50.656;7.568;2024-03-02T14:04:38;15.60;91.20
5617;DHT22;2830;50.656;7.568;2024-03-02T14:07:06;15.60;91.80
5617;DHT22;2830;50.656;7.568;2024-03-02T14:09:37;15.60;91.30
5617;DHT22;2830;50.656;7.568;2024-03-02T14:12:04;15.50;92.20
5617;DHT22;2830;50.656;7.568;2024-03-02T14:14:32;15.30;92.30
5617;DHT22;2830;50.656;7.568;2024-03-02T14:17:00;15.20;92.60
5617;DHT22;2830;50.656;7.568;2024-03-02T14:19:33;15.10;93.00
5617;DHT22;2830;50.656;7.568;2024-03-02T14:22:00;15.20;92.80
5617;DHT22;2830;50.656;7.568;2024-03-02T14:24:27;15.20;92.50
5617;DHT22;2830;50.656;7.568;2024-03-02T14:26:56;15.20;93.20
5617;DHT22;2830;50.656;7.568;2024-03-02T14:29:44;14.90;92.50
5617;DHT22;2830;50.656;7.568;2024-03-02T14:32:11;14.70;92.80
5617;DHT22;2830;50.656;7.568;2024-03-02T14:34:37;14.60;92.50
5617;DHT22;2830;50.656;7.568;2024-03-02T14:37:06;14.60;92.70
5617;DHT22;2830;50.656;7.568;2024-03-02T14:39:33;14.60;93.00
5617;DHT22;2830;50.656;7.568;2024-03-02T14:42:02;14.60;93.20
5617;DHT22;2830;50.656;7.568;2024-03-02T14:44:29;14.60;93.20
5617;DHT22;2830;50.656;7.568;2024-03-02T14:46:56;14.60;93.10
5617;DHT22;2830;50.656;7.568;2024-03-02T14:49:26;14.50;93.30
5617;DHT22;2830;50.656;7.568;2024-03-02T14:51:53;14.50;93.00
5617;DHT22;2830;50.656;7.568;2024-03-02T14:54:20;14.40;93.20
5617;DHT22;2830;50.656;7.568;2024-03-02T14:56:47;14.30;93.90
5617;DHT22;2830;50.656;7.568;2024-03-02T14:59:15;14.30;94.20
5617;DHT22;2830;50.656;7.568;2024-03-02T15:01:41;14.20;95.00
5617;DHT22;2830;50.656;7.568;2024-03-02T15:04:08;14.00;94.30
5617;DHT22;2830;50.656;7.568;2024-03-02T15:06:35;13.90;94.20
5617;DHT22;2830;50.656;7.568;2024-03-02T15:09:02;13.90;94.50
5617;DHT22;2830;50.656;7.568;2024-03-02T15:11:29;13.90;94.50
5617;DHT22;2830;50.656;7.568;2024-03-02T15:13:58;14.00;94.40
5617;DHT22;2830;50.656;7.568;2024-03-02T15:16:24;14.10;94.40
5617;DHT22;2830;50.656;7.568;2024-03-02T15:18:51;14.00;94.40
5617;DHT22;2830;50.656;7.568;2024-03-02T15:21:18;14.00;94.90
5617;DHT22;2830;50.656;7.568;2024-03-02T15:23:48;14.00;95.80
5617;DHT22;2830;50.656;7.568;2024-03-02T15:26:15;14.00;95.00
5617;DHT22;2830;50.656;7.568;2024-03-02T15:28:42;13.80;95.50
5617;DHT22;2830;50.656;7.568;2024-03-02T15:31:09;13.90;95.80
5617;DHT22;2830;50.656;7.568;2024-03-02T15:33:36;14.00;96.00
5617;DHT22;2830;50.656;7.568;2024-03-02T15:36:03;13.90;95.10
5617;DHT22;2830;50.656;7.568;2024-03-02T15:38:31;13.80;95.70
5617;DHT22;2830;50.656;7.568;2024-03-02T15:41:04;13.80;95.50
5617;DHT22;2830;50.656;7.568;2024-03-02T15:43:31;13.70;95.90
5617;DHT22;2830;50.656;7.568;2024-03-02T15:45:58;13.70;96.00
5617;DHT22;2830;50.656;7.568;2024-03-02T15:48:25;13.60;95.90
5617;DHT22;2830;50.656;7.568;2024-03-02T15:50:53;13.60;96.20
5617;DHT22;2830;50.656;7.568;2024-03-02T15:53:20;13.50;95.90
5617;DHT22;2830;50.656;7.568;2024-03-02T15:55:47;13.50;96.20
5617;DHT22;2830;50.656;7.568;2024-03-02T15:58:14;13.40;96.50
5617;DHT22;2830;50.656;7.568;2024-03-02T16:00:41;13.40;96.40
5617;DHT22;2830;50.656;7.568;2024-03-02T16:03:08;13.30;96.30
5617;DHT22;2830;50.656;7.568;2024-03-02T16:05:35;13.30;96.70
5617;DHT22;2830;50.656;7.568;2024-03-02T16:08:02;13.20;96.40
5617;DHT22;2830;50.656;7.568;2024-03-02T16:10:30;13.10;96.70
5617;DHT22;2830;50.656;7.568;2024-03-02T16:12:56;13.20;96.70
5617;DHT22;2830;50.656;7.568;2024-03-02T16:15:27;13.10;96.80
5617;DHT22;2830;50.656;7.568;2024-03-02T16:17:55;13.10;97.00
5617;DHT22;2830;50.656;7.568;2024-03-02T16:20:22;13.10;96.80
5617;DHT22;2830;50.656;7.568;2024-03-02T16:22:50;13.10;97.10
5617;DHT22;2830;50.656;7.568;2024-03-02T16:25:17;13.10;97.50